sensor_id;sensor_type;location;lat;lon;timestamp;temperature;humidity
53645;DHT22;39547;45.554;12.068;2023-12-14T00:01:42;6.70;94.10
53645;DHT22;39547;45.554;12.068;2023-12-14T00:07:44;6.60;94.00
53645;DHT22;39547;45.554;12.068;2023-12-14T00:13:46;6.60;94.30
53645;DHT22;39547;45.554;12.068;2023-12-14T00:19:47;6.60;94.20
53645;DHT22;39547;45.554;12.068;2023-12-14T00:25:49;6.50;94.20
53645;DHT22;39547;45.554;12.068;2023-12-14T00:31:50;6.50;94.10
53645;DHT22;39547;45.554;12.068;2023-12-14T00:37:52;6.40;94.00
53645;DHT22;39547;45.554;12.068;2023-12-14T00:43:53;6.40;94.20
53645;DHT22;39547;45.554;12.068;2023-12-14T00:49:55;6.30;94.20
53645;DHT22;39547;45.554;12.068;2023-12-14T00:55:56;6.30;94.10
53645;DHT22;39547;45.554;12.068;2023-12-14T01:01:58;6.40;94.30
53645;DHT22;39547;45.554;12.068;2023-12-14T01:07:59;6.40;94.30
53645;DHT22;39547;45.554;12.068;2023-12-14T01:14:01;6.30;93.90
53645;DHT22;39547;45.554;12.068;2023-12-14T01:20:05;6.20;94.00
53645;DHT22;39547;45.554;12.068;2023-12-14T01:26:07;6.20;94.30
53645;DHT22;39547;45.554;12.068;2023-12-14T01:32:08;6.20;94.30
53645;DHT22;39547;45.554;12.068;2023-12-14T01:38:10;6.20;94.30
53645;DHT22;39547;45.554;12.068;2023-12-14T01:44:11;6.30;94.40
53645;DHT22;39547;45.554;12.068;2023-12-14T01:50:13;6.30;94.30
53645;DHT22;39547;45.554;12.068;2023-12-14T01:56:14;6.30;94.20
53645;DHT22;39547;45.554;12.068;2023-12-14T02:02:16;6.20;94.20
53645;DHT22;39547;45.554;12.068;2023-12-14T02:08:18;6.20;94.30
53645;DHT22;39547;45.554;12.068;2023-12-14T02:14:21;6.30;94.60
53645;DHT22;39547;45.554;12.068;2023-12-14T02:20:24;6.50;94.70
53645;DHT22;39547;45.554;12.068;2023-12-14T02:26:25;6.50;94.70
53645;DHT22;39547;45.554;12.068;2023-12-14T02:32:27;6.40;94.30
53645;DHT22;39547;45.554;12.068;2023-12-14T02:38:29;6.20;93.80
53645;DHT22;39547;45.554;12.068;2023-12-14T02:44:31;6.00;94.00
53645;DHT22;39547;45.554;12.068;2023-12-14T02:50:32;6.00;94.10
53645;DHT22;39547;45.554;12.068;2023-12-14T02:56:34;5.90;93.60
53645;DHT22;39547;45.554;12.068;2023-12-14T03:02:35;5.70;93.60
53645;DHT22;39547;45.554;12.068;2023-12-14T03:08:37;5.60;93.40
53645;DHT22;39547;45.554;12.068;2023-12-14T03:14:38;5.50;93.80
53645;DHT22;39547;45.554;12.068;2023-12-14T03:20:41;5.60;94.10
53645;DHT22;39547;45.554;12.068;2023-12-14T03:26:43;5.60;94.30
53645;DHT22;39547;45.554;12.068;2023-12-14T03:32:44;5.60;93.80
53645;DHT22;39547;45.554;12.068;2023-12-14T03:38:46;5.50;93.50
53645;DHT22;39547;45.554;12.068;2023-12-14T03:44:47;5.50;94.00
53645;DHT22;39547;45.554;12.068;2023-12-14T03:50:48;5.60;94.20
53645;DHT22;39547;45.554;12.068;2023-12-14T03:56:50;5.60;94.20
53645;DHT22;39547;45.554;12.068;2023-12-14T04:02:51;5.50;93.80
53645;DHT22;39547;45.554;12.068;2023-12-14T04:08:53;5.40;93.80
53645;DHT22;39547;45.554;12.068;2023-12-14T04:14:55;5.40;93.50
53645;DHT22;39547;45.554;12.068;2023-12-14T04:20:57;5.20;93.50
53645;DHT22;39547;45.554;12.068;2023-12-14T04:26:58;5.30;93.90
53645;DHT22;39547;45.554;12.068;2023-12-14T04:33:00;5.20;93.90
53645;DHT22;39547;45.554;12.068;2023-12-14T04:39:01;5.20;93.80
53645;DHT22;39547;45.554;12.068;2023-12-14T04:45:04;5.20;93.90
53645;DHT22;39547;45.554;12.068;2023-12-14T04:51:05;5.20;93.70
53645;DHT22;39547;45.554;12.068;2023-12-14T04:57:12;5.20;93.90
53645;DHT22;39547;45.554;12.068;2023-12-14T05:03:13;5.20;94.00
53645;DHT22;39547;45.554;12.068;2023-12-14T05:09:15;5.20;93.70
53645;DHT22;39547;45.554;12.068;2023-12-14T05:15:16;5.10;93.70
53645;DHT22;39547;45.554;12.068;2023-12-14T05:21:18;5.10;93.80
53645;DHT22;39547;45.554;12.068;2023-12-14T05:27:20;5.10;93.90
53645;DHT22;39547;45.554;12.068;2023-12-14T05:33:21;5.00;93.90
53645;DHT22;39547;45.554;12.068;2023-12-14T05:39:23;5.00;93.90
53645;DHT22;39547;45.554;12.068;2023-12-14T05:45:24;5.00;93.90
53645;DHT22;39547;45.554;12.068;2023-12-14T05:51:27;4.90;93.60
53645;DHT22;39547;45.554;12.068;2023-12-14T05:57:29;4.80;92.70
53645;DHT22;39547;45.554;12.068;2023-12-14T06:03:31;4.70;93.40
53645;DHT22;39547;45.554;12.068;2023-12-14T06:09:33;4.70;93.60
53645;DHT22;39547;45.554;12.068;2023-12-14T06:15:36;4.70;93.80
53645;DHT22;39547;45.554;12.068;2023-12-14T06:21:37;4.80;93.90
53645;DHT22;39547;45.554;12.068;2023-12-14T06:27:39;4.90;94.10
53645;DHT22;39547;45.554;12.068;2023-12-14T06:33:43;4.80;93.00
53645;DHT22;39547;45.554;12.068;2023-12-14T06:39:44;4.70;93.40
53645;DHT22;39547;45.554;12.068;2023-12-14T06:45:49;4.70;93.60
53645;DHT22;39547;45.554;12.068;2023-12-14T06:51:52;4.70;94.00
53645;DHT22;39547;45.554;12.068;2023-12-14T06:57:54;4.80;94.20
53645;DHT22;39547;45.554;12.068;2023-12-14T07:03:56;4.80;94.00
53645;DHT22;39547;45.554;12.068;2023-12-14T07:10:00;4.90;93.90
53645;DHT22;39547;45.554;12.068;2023-12-14T07:16:08;5.00;94.10
53645;DHT22;39547;45.554;12.068;2023-12-14T07:22:10;5.00;94.20
53645;DHT22;39547;45.554;12.068;2023-12-14T07:28:12;5.10;94.20
53645;DHT22;39547;45.554;12.068;2023-12-14T07:34:14;5.20;94.30
53645;DHT22;39547;45.554;12.068;2023-12-14T07:40:15;5.10;94.10
53645;DHT22;39547;45.554;12.068;2023-12-14T07:46:18;5.20;94.50
53645;DHT22;39547;45.554;12.068;2023-12-14T07:52:19;5.20;94.60
53645;DHT22;39547;45.554;12.068;2023-12-14T07:58:21;5.40;94.70
53645;DHT22;39547;45.554;12.068;2023-12-14T08:04:22;5.40;94.70
53645;DHT22;39547;45.554;12.068;2023-12-14T08:10:25;5.40;94.70
53645;DHT22;39547;45.554;12.068;2023-12-14T08:16:26;5.40;94.60
53645;DHT22;39547;45.554;12.068;2023-12-14T08:22:28;5.40;94.80
53645;DHT22;39547;45.554;12.068;2023-12-14T08:28:30;5.50;94.80
53645;DHT22;39547;45.554;12.068;2023-12-14T08:34:31;5.50;94.70
53645;DHT22;39547;45.554;12.068;2023-12-14T08:40:33;5.50;94.80
53645;DHT22;39547;45.554;12.068;2023-12-14T08:46:43;5.60;95.00
53645;DHT22;39547;45.554;12.068;2023-12-14T08:52:47;5.70;95.00
53645;DHT22;39547;45.554;12.068;2023-12-14T08:58:49;5.70;94.90
53645;DHT22;39547;45.554;12.068;2023-12-14T09:04:51;5.90;95.10
53645;DHT22;39547;45.554;12.068;2023-12-14T09:10:56;5.90;95.10
53645;DHT22;39547;45.554;12.068;2023-12-14T09:17:01;6.10;95.10
53645;DHT22;39547;45.554;12.068;2023-12-14T09:23:02;6.20;95.00
53645;DHT22;39547;45.554;12.068;2023-12-14T09:29:04;6.20;95.10
53645;DHT22;39547;45.554;12.068;2023-12-14T09:35:06;6.20;94.90
53645;DHT22;39547;45.554;12.068;2023-12-14T09:41:08;6.30;95.20
53645;DHT22;39547;45.554;12.068;2023-12-14T09:47:09;6.40;95.20
53645;DHT22;39547;45.554;12.068;2023-12-14T09:53:11;6.50;95.20
53645;DHT22;39547;45.554;12.068;2023-12-14T09:59:13;6.50;95.20
53645;DHT22;39547;45.554;12.068;2023-12-14T10:05:15;6.70;95.40
53645;DHT22;39547;45.554;12.068;2023-12-14T10:11:17;6.70;95.40
53645;DHT22;39547;45.554;12.068;2023-12-14T10:17:22;6.70;95.40
53645;DHT22;39547;45.554;12.068;2023-12-14T10:23:30;6.80;95.60
53645;DHT22;39547;45.554;12.068;2023-12-14T10:29:33;7.00;95.60
53645;DHT22;39547;45.554;12.068;2023-12-14T10:35:36;7.20;95.50
53645;DHT22;39547;45.554;12.068;2023-12-14T10:41:38;7.20;95.60
53645;DHT22;39547;45.554;12.068;2023-12-14T10:47:43;7.50;95.80
53645;DHT22;39547;45.554;12.068;2023-12-14T10:53:45;7.70;96.00
53645;DHT22;39547;45.554;12.068;2023-12-14T10:59:50;7.90;96.10
53645;DHT22;39547;45.554;12.068;2023-12-14T11:05:56;8.10;96.20
53645;DHT22;39547;45.554;12.068;2023-12-14T11:11:58;8.20;96.10
53645;DHT22;39547;45.554;12.068;2023-12-14T11:24:12;8.40;95.90
53645;DHT22;39547;45.554;12.068;2023-12-14T11:30:15;8.40;95.70
53645;DHT22;39547;45.554;12.068;2023-12-14T11:36:17;8.60;95.80
53645;DHT22;39547;45.554;12.068;2023-12-14T11:42:19;8.70;96.00
53645;DHT22;39547;45.554;12.068;2023-12-14T11:48:21;8.70;95.50
53645;DHT22;39547;45.554;12.068;2023-12-14T11:54:23;8.80;96.00
53645;DHT22;39547;45.554;12.068;2023-12-14T12:00:28;9.00;96.00
53645;DHT22;39547;45.554;12.068;2023-12-14T12:06:30;9.10;96.00
53645;DHT22;39547;45.554;12.068;2023-12-14T12:12:33;9.20;95.80
53645;DHT22;39547;45.554;12.068;2023-12-14T12:18:35;9.30;95.90
53645;DHT22;39547;45.554;12.068;2023-12-14T12:24:37;9.40;96.00
53645;DHT22;39547;45.554;12.068;2023-12-14T12:30:39;9.50;95.80
53645;DHT22;39547;45.554;12.068;2023-12-14T12:36:40;9.70;95.70
53645;DHT22;39547;45.554;12.068;2023-12-14T12:42:42;9.80;95.90
53645;DHT22;39547;45.554;12.068;2023-12-14T12:48:43;10.00;96.00
53645;DHT22;39547;45.554;12.068;2023-12-14T12:54:45;10.00;95.70
53645;DHT22;39547;45.554;12.068;2023-12-14T13:00:46;10.10;95.70
53645;DHT22;39547;45.554;12.068;2023-12-14T13:06:48;10.20;95.80
53645;DHT22;39547;45.554;12.068;2023-12-14T13:12:50;10.20;94.80
53645;DHT22;39547;45.554;12.068;2023-12-14T13:18:54;10.20;95.60
53645;DHT22;39547;45.554;12.068;2023-12-14T13:24:55;10.20;95.40
53645;DHT22;39547;45.554;12.068;2023-12-14T13:30:57;10.20;95.30
53645;DHT22;39547;45.554;12.068;2023-12-14T13:36:59;10.20;95.70
53645;DHT22;39547;45.554;12.068;2023-12-14T13:43:02;10.20;95.80
53645;DHT22;39547;45.554;12.068;2023-12-14T13:49:11;10.10;95.80
53645;DHT22;39547;45.554;12.068;2023-12-14T13:55:13;10.10;95.80
53645;DHT22;39547;45.554;12.068;2023-12-14T14:01:15;10.00;95.80
53645;DHT22;39547;45.554;12.068;2023-12-14T14:07:16;10.00;96.00
53645;DHT22;39547;45.554;12.068;2023-12-14T14:13:19;10.00;96.00
53645;DHT22;39547;45.554;12.068;2023-12-14T14:19:22;10.00;96.10
53645;DHT22;39547;45.554;12.068;2023-12-14T14:25:24;9.90;96.10
53645;DHT22;39547;45.554;12.068;2023-12-14T14:31:26;9.80;95.80
53645;DHT22;39547;45.554;12.068;2023-12-14T14:37:31;9.70;96.00
53645;DHT22;39547;45.554;12.068;2023-12-14T14:43:32;9.70;96.00
53645;DHT22;39547;45.554;12.068;2023-12-14T14:49:34;9.50;95.80
53645;DHT22;39547;45.554;12.068;2023-12-14T14:55:35;9.40;95.70
53645;DHT22;39547;45.554;12.068;2023-12-14T15:01:37;9.20;95.60
53645;DHT22;39547;45.554;12.068;2023-12-14T15:07:39;9.00;95.80
53645;DHT22;39547;45.554;12.068;2023-12-14T15:13:40;8.80;95.50
53645;DHT22;39547;45.554;12.068;2023-12-14T15:19:43;8.50;95.20
53645;DHT22;39547;45.554;12.068;2023-12-14T15:25:47;8.40;95.40
53645;DHT22;39547;45.554;12.068;2023-12-14T15:31:48;8.20;95.70
53645;DHT22;39547;45.554;12.068;2023-12-14T15:37:50;8.20;95.90
53645;DHT22;39547;45.554;12.068;2023-12-14T15:43:52;8.20;95.90
53645;DHT22;39547;45.554;12.068;2023-12-14T15:49:53;8.10;95.60
53645;DHT22;39547;45.554;12.068;2023-12-14T15:55:55;8.10;95.70
53645;DHT22;39547;45.554;12.068;2023-12-14T16:01:56;8.10;95.80
53645;DHT22;39547;45.554;12.068;2023-12-14T16:07:58;8.00;96.00
53645;DHT22;39547;45.554;12.068;2023-12-14T16:14:00;7.90;96.00
53645;DHT22;39547;45.554;12.068;2023-12-14T16:20:01;7.90;96.00
53645;DHT22;39547;45.554;12.068;2023-12-14T16:26:05;8.00;96.20
53645;DHT22;39547;45.554;12.068;2023-12-14T16:32:07;8.00;96.20
53645;DHT22;39547;45.554;12.068;2023-12-14T16:38:08;8.00;96.20
53645;DHT22;39547;45.554;12.068;2023-12-14T16:44:09;8.00;96.30
53645;DHT22;39547;45.554;12.068;2023-12-14T16:50:11;7.90;96.20
53645;DHT22;39547;45.554;12.068;2023-12-14T16:56:16;8.00;96.40
53645;DHT22;39547;45.554;12.068;2023-12-14T17:02:17;8.00;96.30
53645;DHT22;39547;45.554;12.068;2023-12-14T17:08:19;8.00;96.30
53645;DHT22;39547;45.554;12.068;2023-12-14T17:14:23;8.00;96.30
53645;DHT22;39547;45.554;12.068;2023-12-14T17:20:24;8.10;96.40
53645;DHT22;39547;45.554;12.068;2023-12-14T17:26:26;8.10;96.40
53645;DHT22;39547;45.554;12.068;2023-12-14T17:32:28;8.10;96.40
53645;DHT22;39547;45.554;12.068;2023-12-14T17:38:30;8.10;96.40
53645;DHT22;39547;45.554;12.068;2023-12-14T17:44:32;8.10;96.30
53645;DHT22;39547;45.554;12.068;2023-12-14T17:50:34;8.00;96.20
53645;DHT22;39547;45.554;12.068;2023-12-14T17:56:36;7.90;96.00
53645;DHT22;39547;45.554;12.068;2023-12-14T18:02:38;7.90;96.20
53645;DHT22;39547;45.554;12.068;2023-12-14T18:08:39;7.90;96.10
53645;DHT22;39547;45.554;12.068;2023-12-14T18:14:41;7.90;96.10
53645;DHT22;39547;45.554;12.068;2023-12-14T18:20:43;7.90;96.20
53645;DHT22;39547;45.554;12.068;2023-12-14T18:26:45;7.80;95.80
53645;DHT22;39547;45.554;12.068;2023-12-14T18:32:46;7.80;96.00
53645;DHT22;39547;45.554;12.068;2023-12-14T18:38:51;7.80;96.00
53645;DHT22;39547;45.554;12.068;2023-12-14T18:44:53;7.70;95.80
53645;DHT22;39547;45.554;12.068;2023-12-14T18:50:55;7.70;95.80
53645;DHT22;39547;45.554;12.068;2023-12-14T18:56:56;7.70;95.80
53645;DHT22;39547;45.554;12.068;2023-12-14T19:02:58;7.60;95.70
53645;DHT22;39547;45.554;12.068;2023-12-14T19:08:59;7.50;95.00
53645;DHT22;39547;45.554;12.068;2023-12-14T19:15:01;7.40;95.40
53645;DHT22;39547;45.554;12.068;2023-12-14T19:21:03;7.30;95.20
53645;DHT22;39547;45.554;12.068;2023-12-14T19:27:04;7.30;95.20
53645;DHT22;39547;45.554;12.068;2023-12-14T19:33:06;7.20;95.20
53645;DHT22;39547;45.554;12.068;2023-12-14T19:39:08;7.20;95.20
53645;DHT22;39547;45.554;12.068;2023-12-14T19:45:10;7.20;95.40
53645;DHT22;39547;45.554;12.068;2023-12-14T19:51:11;7.10;94.70
53645;DHT22;39547;45.554;12.068;2023-12-14T19:57:14;7.00;94.90
53645;DHT22;39547;45.554;12.068;2023-12-14T20:03:16;7.00;95.20
53645;DHT22;39547;45.554;12.068;2023-12-14T20:09:19;7.00;95.10
53645;DHT22;39547;45.554;12.068;2023-12-14T20:15:22;6.90;95.00
53645;DHT22;39547;45.554;12.068;2023-12-14T20:21:25;6.80;94.80
53645;DHT22;39547;45.554;12.068;2023-12-14T20:27:29;6.80;94.90
53645;DHT22;39547;45.554;12.068;2023-12-14T20:33:32;6.70;94.90
53645;DHT22;39547;45.554;12.068;2023-12-14T20:39:34;6.70;94.90
53645;DHT22;39547;45.554;12.068;2023-12-14T20:45:41;6.70;95.10
53645;DHT22;39547;45.554;12.068;2023-12-14T20:51:43;6.70;95.30
53645;DHT22;39547;45.554;12.068;2023-12-14T20:57:45;6.80;95.20
53645;DHT22;39547;45.554;12.068;2023-12-14T21:03:47;6.70;95.10
53645;DHT22;39547;45.554;12.068;2023-12-14T21:09:51;6.70;94.80
53645;DHT22;39547;45.554;12.068;2023-12-14T21:15:52;6.60;94.90
53645;DHT22;39547;45.554;12.068;2023-12-14T21:21:55;6.60;94.80
53645;DHT22;39547;45.554;12.068;2023-12-14T21:28:00;6.50;94.40
53645;DHT22;39547;45.554;12.068;2023-12-14T21:34:03;6.40;94.50
53645;DHT22;39547;45.554;12.068;2023-12-14T21:40:07;6.40;94.60
53645;DHT22;39547;45.554;12.068;2023-12-14T21:46:09;6.40;94.50
53645;DHT22;39547;45.554;12.068;2023-12-14T21:52:10;6.30;94.70
53645;DHT22;39547;45.554;12.068;2023-12-14T21:58:12;6.30;94.40
53645;DHT22;39547;45.554;12.068;2023-12-14T22:04:13;6.30;94.70
53645;DHT22;39547;45.554;12.068;2023-12-14T22:10:15;6.30;94.70
53645;DHT22;39547;45.554;12.068;2023-12-14T22:16:17;6.20;94.30
53645;DHT22;39547;45.554;12.068;2023-12-14T22:22:18;6.20;94.60
53645;DHT22;39547;45.554;12.068;2023-12-14T22:28:20;6.20;94.60
53645;DHT22;39547;45.554;12.068;2023-12-14T22:34:21;6.20;94.60
53645;DHT22;39547;45.554;12.068;2023-12-14T22:40:23;6.20;94.50
53645;DHT22;39547;45.554;12.068;2023-12-14T22:46:24;6.10;94.30
53645;DHT22;39547;45.554;12.068;2023-12-14T22:52:26;5.90;93.40
53645;DHT22;39547;45.554;12.068;2023-12-14T22:58:28;5.70;93.50
53645;DHT22;39547;45.554;12.068;2023-12-14T23:04:29;5.70;94.20
53645;DHT22;39547;45.554;12.068;2023-12-14T23:10:32;5.70;94.10
53645;DHT22;39547;45.554;12.068;2023-12-14T23:16:34;5.70;93.90
53645;DHT22;39547;45.554;12.068;2023-12-14T23:22:36;5.70;94.00
53645;DHT22;39547;45.554;12.068;2023-12-14T23:28:37;5.60;93.70
53645;DHT22;39547;45.554;12.068;2023-12-14T23:34:39;5.50;93.90
53645;DHT22;39547;45.554;12.068;2023-12-14T23:40:41;5.50;93.70
53645;DHT22;39547;45.554;12.068;2023-12-14T23:46:42;5.40;93.40
53645;DHT22;39547;45.554;12.068;2023-12-14T23:52:44;5.30;93.40
53645;DHT22;39547;45.554;12.068;2023-12-14T23:58:45;5.30;93.80
